Time;durP1;ratioP1;P1;durP2;ratioP2;P2;SDS_P1;SDS_P2;PMS_P1;PMS_P2;Temp;Humidity;BMP_temperature;BMP_pressure;BME280_temperature;BME280_humidity;BME280_pressure;Samples;Min_cycle;Max_cycle;Signal;HPM_P1;HPM_P2
2021/10/04 00:01:59;;;;;;;77.57;32.63;;;;;;;4.64;80.74;100938.63;5069647;28;20247;-65
2021/10/04 00:04:25;;;;;;;74.03;30.67;;;;;;;4.65;81.36;100944.75;5070322;28;20041;-65
2021/10/04 00:06:50;;;;;;;76.90;31.30;;;;;;;4.62;81.70;100938.00;5070331;28;20040;-64
2021/10/04 00:09:16;;;;;;;72.80;31.83;;;;;;;4.60;81.31;100932.06;5071200;28;20506;-65
2021/10/04 00:11:42;;;;;;;78.43;33.53;;;;;;;4.62;81.89;100937.16;5070132;28;20044;-64
2021/10/04 00:14:08;;;;;;;76.63;33.25;;;;;;;4.62;81.41;100935.38;5071231;28;20044;-64
2021/10/04 00:16:36;;;;;;;70.43;31.75;;;;;;;4.60;81.04;100945.22;5071397;28;20132;-65
2021/10/04 00:19:02;;;;;;;72.35;31.52;;;;;;;4.59;81.16;100946.19;5071098;28;20052;-65
2021/10/04 00:21:27;;;;;;;75.57;32.13;;;;;;;4.60;81.59;100936.50;5053254;28;20056;-65
2021/10/04 00:23:53;;;;;;;71.18;31.08;;;;;;;4.57;81.51;100942.91;5069833;28;20501;-65
2021/10/04 00:26:20;;;;;;;69.82;30.23;;;;;;;4.55;80.63;100942.22;5071269;28;20131;-65
2021/10/04 00:28:46;;;;;;;75.72;31.67;;;;;;;4.50;81.19;100945.34;5071070;28;20056;-65
2021/10/04 00:31:11;;;;;;;77.75;31.60;;;;;;;4.50;81.06;100941.88;5071341;28;20036;-65
2021/10/04 00:33:37;;;;;;;71.00;31.70;;;;;;;4.51;81.50;100938.28;5069715;28;20055;-65
2021/10/04 00:36:03;;;;;;;68.95;30.75;;;;;;;4.48;80.97;100936.81;5071002;28;20463;-65
2021/10/04 00:38:29;;;;;;;72.78;30.90;;;;;;;4.46;80.80;100941.38;5052905;28;20409;-65
2021/10/04 00:40:55;;;;;;;86.35;32.45;;;;;;;4.45;81.78;100938.94;5071174;28;20040;-64
2021/10/04 00:43:21;;;;;;;78.43;31.90;;;;;;;4.45;81.77;100944.19;5070920;28;20041;-65
2021/10/04 00:45:48;;;;;;;75.28;32.25;;;;;;;4.42;81.37;100941.88;5070954;28;20132;-64
2021/10/04 00:48:14;;;;;;;71.25;30.17;;;;;;;4.44;81.49;100940.75;5052981;28;20066;-64
2021/10/04 00:50:40;;;;;;;72.18;31.20;;;;;;;4.45;81.00;100942.38;5071085;28;20036;-64
2021/10/04 00:53:05;;;;;;;71.88;31.17;;;;;;;4.46;80.92;100940.56;5070832;28;20048;-64
2021/10/04 00:55:31;;;;;;;75.70;30.77;;;;;;;4.42;80.04;100937.44;5070955;28;20102;-65
2021/10/04 00:57:57;;;;;;;70.97;31.10;;;;;;;4.43;80.73;100939.06;5074860;28;20036;-65
2021/10/04 01:00:25;;;;;;;66.18;30.00;;;;;;;4.40;81.01;100938.56;5056645;28;20044;-65
2021/10/04 01:02:51;;;;;;;71.53;30.67;;;;;;;4.39;80.26;100945.63;5074886;28;20040;-65
2021/10/04 01:05:17;;;;;;;66.05;28.40;;;;;;;4.41;79.42;100943.69;5073162;28;20139;-65
2021/10/04 01:07:43;;;;;;;71.40;28.92;;;;;;;4.36;79.54;100945.13;5056648;28;20482;-65
2021/10/04 01:10:10;;;;;;;63.33;29.02;;;;;;;4.34;80.44;100940.03;5074205;28;20084;-65
2021/10/04 01:12:38;;;;;;;70.28;28.55;;;;;;;4.36;79.75;100939.88;5073223;28;20119;-64
2021/10/04 01:15:05;;;;;;;65.43;28.88;;;;;;;4.34;79.74;100945.28;5074247;28;20417;-65
2021/10/04 01:17:31;;;;;;;65.35;28.73;;;;;;;4.32;79.52;100941.97;5074470;28;20065;-64
2021/10/04 01:19:57;;;;;;;65.80;29.20;;;;;;;4.30;79.36;100944.78;5074202;28;20064;-65
2021/10/04 01:22:22;;;;;;;66.88;30.08;;;;;;;4.30;79.56;100950.03;5074064;28;20044;-65
2021/10/04 01:24:48;;;;;;;67.40;29.15;;;;;;;4.32;79.40;100955.94;5074114;28;20052;-65
2021/10/04 01:27:14;;;;;;;64.10;27.80;;;;;;;4.33;78.40;100946.28;5074381;28;20049;-64
2021/10/04 01:29:40;;;;;;;65.45;27.98;;;;;;;4.31;79.01;100950.84;5073987;28;20135;-64
2021/10/04 01:32:07;;;;;;;70.18;29.50;;;;;;;4.31;79.03;100956.09;5074279;28;20166;-64
2021/10/04 01:34:33;;;;;;;68.25;28.73;;;;;;;4.33;79.66;100959.41;5073891;28;20049;-64
2021/10/04 01:36:59;;;;;;;67.80;30.63;;;;;;;4.31;79.86;100959.53;5074143;28;20051;-64
2021/10/04 01:39:24;;;;;;;65.13;30.73;;;;;;;4.34;80.41;100966.28;5072640;28;20059;-64
2021/10/04 01:41:50;;;;;;;66.68;28.17;;;;;;;4.37;79.53;100963.34;5074135;28;20425;-64
2021/10/04 01:44:16;;;;;;;67.68;28.98;;;;;;;4.37;79.60;100970.41;5072486;28;20052;-64
2021/10/04 01:46:42;;;;;;;62.30;30.00;;;;;;;4.34;79.83;100968.91;5073980;28;20041;-64
2021/10/04 01:49:08;;;;;;;67.75;29.52;;;;;;;4.35;79.17;100964.47;5072409;28;20047;-64
2021/10/04 01:51:34;;;;;;;69.10;29.75;;;;;;;4.36;79.82;100966.97;5073856;28;20464;-64
2021/10/04 01:54:00;;;;;;;72.40;29.02;;;;;;;4.33;79.77;100965.47;5073513;28;20048;-64
2021/10/04 01:56:25;;;;;;;66.90;29.95;;;;;;;4.35;79.42;100962.66;5072106;28;20032;-64
2021/10/04 01:58:51;;;;;;;67.25;28.40;;;;;;;4.38;78.79;100959.72;5070771;28;20060;-63
2021/10/04 02:01:19;;;;;;;67.18;29.05;;;;;;;4.37;78.50;100965.97;5051995;28;20045;-64
2021/10/04 02:03:45;;;;;;;61.63;28.23;;;;;;;4.36;78.20;100956.44;5053049;28;20048;-63
2021/10/04 02:06:11;;;;;;;64.30;28.95;;;;;;;4.35;79.25;100956.59;5054500;28;20036;-64
2021/10/04 02:08:37;;;;;;;59.53;27.33;;;;;;;4.31;77.94;100956.09;5068511;28;20056;-63
2021/10/04 02:11:03;;;;;;;73.68;29.25;;;;;;;4.32;79.46;100963.84;5064232;28;20045;-63
2021/10/04 02:13:29;;;;;;;69.00;29.92;;;;;;;4.35;79.12;100959.22;5070018;28;20040;-63
2021/10/04 02:15:55;;;;;;;74.95;31.58;;;;;;;4.36;78.89;100961.72;5068384;28;20086;-64
2021/10/04 02:18:20;;;;;;;64.25;28.95;;;;;;;4.38;79.51;100967.59;5073012;28;20134;-63
2021/10/04 02:20:47;;;;;;;67.30;27.10;;;;;;;4.36;78.02;100963.50;5071802;28;20052;-64
2021/10/04 02:23:14;;;;;;;67.15;28.48;;;;;;;4.37;78.94;100967.78;5070032;28;20049;-64
2021/10/04 02:25:42;;;;;;;64.55;29.38;;;;;;;4.41;78.10;100971.72;5062383;28;20059;-64
2021/10/04 02:28:10;;;;;;;62.30;28.02;;;;;;;4.46;78.19;100959.75;5062579;28;20040;-64
2021/10/04 02:30:36;;;;;;;69.72;29.33;;;;;;;4.51;79.10;100962.75;5060044;28;20462;-64
2021/10/04 02:33:03;;;;;;;55.28;27.02;;;;;;;4.59;77.18;100964.59;5063077;28;20053;-64
2021/10/04 02:35:29;;;;;;;64.32;28.70;;;;;;;4.68;77.27;100970.69;5036814;28;20166;-65
2021/10/04 02:37:55;;;;;;;73.60;31.35;;;;;;;4.70;76.34;100968.69;5072451;28;20468;-63
2021/10/04 02:40:22;;;;;;;67.13;28.45;;;;;;;4.72;76.41;100972.81;5072957;28;20401;-65
2021/10/04 02:42:49;;;;;;;58.80;25.77;;;;;;;4.78;74.74;100968.72;5073018;28;20037;-64
2021/10/04 02:45:17;;;;;;;52.25;26.15;;;;;;;4.80;76.19;100968.56;5071366;28;20044;-64
2021/10/04 02:47:44;;;;;;;54.38;25.83;;;;;;;4.83;75.12;100970.88;5072908;28;20525;-64
2021/10/04 02:50:12;;;;;;;65.30;26.90;;;;;;;4.84;74.94;100968.06;5072468;28;20052;-65
2021/10/04 02:52:38;;;;;;;63.65;27.85;;;;;;;4.76;75.46;100968.91;5072799;28;20553;-64
2021/10/04 02:55:04;;;;;;;62.95;26.63;;;;;;;4.76;75.10;100973.31;5072397;28;20131;-64
2021/10/04 02:57:30;;;;;;;67.93;25.88;;;;;;;4.81;76.08;100971.03;5072620;28;20182;-64
2021/10/04 02:59:56;;;;;;;53.92;26.65;;;;;;;4.87;75.72;100967.75;5054404;28;20127;-64
2021/10/04 03:02:23;;;;;;;60.55;26.25;;;;;;;4.90;75.74;100971.88;5072575;28;20187;-64
2021/10/04 03:04:49;;;;;;;52.00;23.60;;;;;;;4.95;75.25;100967.78;5072224;28;20514;-65
2021/10/04 03:07:15;;;;;;;62.17;25.65;;;;;;;5.00;74.78;100975.19;5071016;28;20056;-63
2021/10/04 03:09:40;;;;;;;56.53;23.98;;;;;;;5.04;75.00;100973.06;5072114;28;20517;-65
2021/10/04 03:12:07;;;;;;;65.63;25.73;;;;;;;5.08;74.36;100969.09;5070926;28;20048;-64
2021/10/04 03:14:33;;;;;;;59.42;25.98;;;;;;;5.10;74.25;100972.41;5070763;28;20133;-64
2021/10/04 03:16:59;;;;;;;60.83;24.65;;;;;;;5.11;74.18;100972.22;5070764;28;20036;-64
2021/10/04 03:19:25;;;;;;;52.17;23.88;;;;;;;5.11;74.76;100974.84;5070058;28;20044;-63
2021/10/04 03:21:51;;;;;;;50.15;23.13;;;;;;;5.11;74.30;100971.41;5070707;28;20043;-64
2021/10/04 03:24:17;;;;;;;62.33;24.20;;;;;;;5.14;74.24;100965.81;5070450;28;20119;-63
2021/10/04 03:26:43;;;;;;;50.45;22.38;;;;;;;5.12;74.52;100979.16;5071759;28;20045;-64
2021/10/04 03:29:10;;;;;;;51.38;22.05;;;;;;;5.09;74.62;100973.38;5071796;28;20090;-64
2021/10/04 03:31:37;;;;;;;56.50;23.58;;;;;;;5.12;74.70;100973.06;5070531;28;20048;-65
2021/10/04 03:34:03;;;;;;;55.20;22.75;;;;;;;5.14;73.70;100969.25;5070374;28;20505;-65
2021/10/04 03:36:30;;;;;;;55.90;22.73;;;;;;;5.12;74.06;100975.69;5071594;28;20052;-64
2021/10/04 03:38:56;;;;;;;46.80;20.02;;;;;;;5.16;74.67;100977.00;5070183;28;20059;-64
2021/10/04 03:41:23;;;;;;;47.53;22.23;;;;;;;5.14;74.00;100974.53;5061546;28;20033;-62
2021/10/04 03:43:49;;;;;;;48.35;20.58;;;;;;;5.23;74.09;100986.72;5061567;28;20041;-64
2021/10/04 03:46:15;;;;;;;41.90;20.30;;;;;;;5.27;74.42;100992.47;5061582;28;20490;-65
2021/10/04 03:48:41;;;;;;;46.92;20.33;;;;;;;5.29;73.96;100987.03;5059965;28;20087;-63
2021/10/04 03:51:07;;;;;;;43.72;20.35;;;;;;;5.34;73.51;100987.38;5060431;28;20036;-63
2021/10/04 03:53:33;;;;;;;46.30;20.00;;;;;;;5.42;73.43;100987.38;5068200;28;20048;-63
2021/10/04 03:55:58;;;;;;;58.90;23.55;;;;;;;5.48;73.05;100991.97;5071516;28;20055;-64
2021/10/04 03:58:24;;;;;;;56.55;23.15;;;;;;;5.51;72.53;100990.81;5070049;28;20051;-64
2021/10/04 04:00:50;;;;;;;57.20;23.33;;;;;;;5.54;72.86;100999.19;5071351;28;20036;-64
2021/10/04 04:03:16;;;;;;;52.28;22.52;;;;;;;5.56;72.78;100996.41;5071272;28;20089;-64
2021/10/04 04:05:42;;;;;;;71.45;25.13;;;;;;;5.57;72.14;101000.69;5070202;28;20032;-63
2021/10/04 04:08:08;;;;;;;63.35;24.45;;;;;;;5.55;72.23;101008.72;5071036;28;20052;-64
2021/10/04 04:10:34;;;;;;;61.58;25.35;;;;;;;5.55;73.15;100992.13;5071573;28;20040;-63
2021/10/04 04:13:00;;;;;;;64.63;23.33;;;;;;;5.55;72.64;101000.03;5071663;28;20397;-63
2021/10/04 04:15:26;;;;;;;60.15;24.67;;;;;;;5.51;72.11;100999.53;5071477;28;20048;-65
2021/10/04 04:17:52;;;;;;;70.53;25.70;;;;;;;5.54;72.34;100993.94;5069930;28;20130;-64
2021/10/04 04:20:18;;;;;;;59.92;23.05;;;;;;;5.62;71.76;101004.47;5071367;28;20040;-64
2021/10/04 04:22:44;;;;;;;56.05;24.27;;;;;;;5.70;72.00;101007.06;5071513;28;20447;-63
2021/10/04 04:25:10;;;;;;;54.60;23.25;;;;;;;5.77;71.57;101011.69;5071113;28;20063;-64
2021/10/04 04:27:36;;;;;;;61.47;24.23;;;;;;;5.75;72.08;101009.22;5071432;28;20130;-63
2021/10/04 04:30:04;;;;;;;59.42;24.85;;;;;;;5.82;72.20;101012.00;5070793;28;20391;-64
2021/10/04 04:32:30;;;;;;;59.38;23.13;;;;;;;5.87;72.03;101018.41;5073021;28;20040;-64
2021/10/04 04:34:56;;;;;;;67.25;25.10;;;;;;;5.94;71.83;101018.59;5075053;28;20052;-64
2021/10/04 04:37:22;;;;;;;62.80;23.85;;;;;;;5.97;72.28;101010.38;5073678;28;20040;-64
2021/10/04 04:39:47;;;;;;;59.10;21.92;;;;;;;6.01;72.06;101016.13;5075155;28;20524;-64
2021/10/04 04:42:13;;;;;;;59.25;23.10;;;;;;;6.08;72.04;101011.81;5075181;28;20536;-64
2021/10/04 04:44:39;;;;;;;63.30;24.83;;;;;;;6.12;71.89;101018.41;5074831;28;20051;-63
2021/10/04 04:47:05;;;;;;;58.40;25.05;;;;;;;6.10;72.12;101023.84;5073606;28;20474;-64
2021/10/04 04:49:31;;;;;;;59.90;26.40;;;;;;;6.09;72.24;101008.22;5073304;28;20072;-64
2021/10/04 04:51:58;;;;;;;61.72;25.00;;;;;;;6.16;72.37;101017.06;5073429;28;20058;-64
2021/10/04 04:54:25;;;;;;;60.20;21.98;;;;;;;6.22;71.92;101018.22;5074325;28;20056;-64
2021/10/04 04:56:54;;;;;;;48.83;22.23;;;;;;;6.29;71.51;101021.81;5074087;28;20076;-64
2021/10/04 04:59:20;;;;;;;56.50;25.85;;;;;;;6.33;71.34;101023.13;5074686;28;20452;-65
2021/10/04 05:01:46;;;;;;;63.10;30.52;;;;;;;6.42;71.85;101023.94;5073373;28;20115;-64
2021/10/04 05:04:11;;;;;;;53.65;23.67;;;;;;;6.46;70.87;101025.22;5074407;28;20132;-64
2021/10/04 05:06:37;;;;;;;54.15;21.85;;;;;;;6.52;71.00;101020.09;5074681;28;20504;-64
2021/10/04 05:09:04;;;;;;;56.42;23.30;;;;;;;6.56;70.97;101026.66;5074280;28;20101;-64
2021/10/04 05:11:29;;;;;;;42.13;19.98;;;;;;;6.64;71.13;101030.25;5074605;28;20079;-63
2021/10/04 05:13:56;;;;;;;47.13;17.55;;;;;;;6.70;70.96;101030.38;5074374;28;20506;-64
2021/10/04 05:16:21;;;;;;;43.25;18.23;;;;;;;6.76;71.13;101027.06;5072961;28;20382;-64
2021/10/04 05:18:47;;;;;;;37.03;15.80;;;;;;;6.87;71.04;101035.59;5073915;28;20051;-64
2021/10/04 05:21:13;;;;;;;36.50;16.80;;;;;;;6.95;70.00;101030.28;5074227;28;20067;-65
2021/10/04 05:23:39;;;;;;;34.47;15.13;;;;;;;7.01;70.30;101034.84;5074121;28;20166;-64
2021/10/04 05:26:05;;;;;;;40.15;16.08;;;;;;;7.08;69.73;101045.53;5055935;28;20036;-64
2021/10/04 05:28:31;;;;;;;32.30;16.15;;;;;;;7.15;69.09;101035.94;5072919;28;20063;-64
2021/10/04 05:30:57;;;;;;;33.33;14.63;;;;;;;7.20;69.31;101031.75;5073773;28;20040;-64
2021/10/04 05:33:23;;;;;;;32.42;16.20;;;;;;;7.27;69.41;101037.16;5073641;28;20044;-64
2021/10/04 05:35:49;;;;;;;34.53;14.93;;;;;;;7.23;69.05;101027.94;5055822;28;20047;-64
2021/10/04 05:38:15;;;;;;;35.20;14.23;;;;;;;7.24;68.64;101025.16;5073634;28;20131;-64
2021/10/04 05:40:40;;;;;;;31.08;14.18;;;;;;;7.30;66.63;101031.53;5073669;28;20078;-64
2021/10/04 05:43:06;;;;;;;26.92;13.45;;;;;;;7.32;65.95;101034.81;5071760;28;20044;-64
2021/10/04 05:45:32;;;;;;;27.48;13.30;;;;;;;7.37;66.20;101039.56;5072263;28;20037;-65
2021/10/04 05:47:58;;;;;;;30.98;14.57;;;;;;;7.42;66.13;101038.03;5073352;28;20040;-64
2021/10/04 05:50:25;;;;;;;30.15;13.45;;;;;;;7.42;65.35;101038.03;5073725;28;20048;-64
2021/10/04 05:52:52;;;;;;;30.30;15.02;;;;;;;7.47;66.21;101041.00;5074219;28;20044;-64
2021/10/04 05:55:18;;;;;;;29.10;13.82;;;;;;;7.51;66.03;101046.72;5073415;28;20045;-64
2021/10/04 05:57:44;;;;;;;29.27;14.07;;;;;;;7.59;66.03;101038.75;5074031;28;20382;-64
2021/10/04 06:00:12;;;;;;;24.80;12.75;;;;;;;7.64;65.37;101035.56;5072534;28;20041;-64
2021/10/04 06:02:38;;;;;;;32.05;13.63;;;;;;;7.74;65.78;101044.06;5072291;28;20048;-64
2021/10/04 06:05:07;;;;;;;31.70;14.95;;;;;;;7.78;65.61;101044.53;5073494;28;20044;-64
2021/10/04 06:07:33;;;;;;;27.52;12.10;;;;;;;7.81;64.49;101037.06;5073533;28;20039;-63
2021/10/04 06:09:59;;;;;;;23.77;12.32;;;;;;;7.83;63.65;101043.00;5071887;28;20071;-64
2021/10/04 06:12:28;;;;;;;20.77;11.57;;;;;;;7.85;63.87;101042.81;5071927;28;20052;-64
2021/10/04 06:14:55;;;;;;;25.35;11.70;;;;;;;7.87;63.53;101036.34;5055692;28;20127;-64
2021/10/04 06:17:21;;;;;;;23.95;11.75;;;;;;;7.90;63.67;101043.91;5071976;28;20141;-61
2021/10/04 06:19:47;;;;;;;40.67;12.40;;;;;;;7.93;63.64;101043.56;5072917;28;20071;-62
2021/10/04 06:22:14;;;;;;;40.85;15.50;;;;;;;7.96;63.87;101034.47;5073263;28;20052;-62
2021/10/04 06:24:39;;;;;;;38.20;15.63;;;;;;;8.02;63.71;101040.84;5072831;28;20040;-61
2021/10/04 06:27:05;;;;;;;28.98;13.02;;;;;;;8.09;63.34;101032.03;5073101;28;20033;-61
2021/10/04 06:29:31;;;;;;;33.40;12.48;;;;;;;8.16;63.51;101038.22;5072682;28;20090;-60
2021/10/04 06:31:57;;;;;;;24.23;11.85;;;;;;;8.17;63.52;101039.84;5063092;28;20048;-62
2021/10/04 06:34:23;;;;;;;29.95;12.02;;;;;;;8.27;62.74;101055.44;5069235;28;20077;-62
2021/10/04 06:36:49;;;;;;;30.00;12.68;;;;;;;8.29;61.90;101048.16;5069531;28;20041;-61
2021/10/04 06:39:14;;;;;;;26.98;11.95;;;;;;;8.33;62.06;101049.44;5069016;28;20290;-62
2021/10/04 06:41:41;;;;;;;29.33;11.63;;;;;;;8.35;61.98;101052.72;5067763;28;20056;-62
2021/10/04 06:44:08;;;;;;;26.65;12.07;;;;;;;8.37;62.11;101045.41;5070412;28;20049;-63
2021/10/04 06:46:35;;;;;;;23.10;11.45;;;;;;;8.39;62.47;101055.84;5068215;28;20048;-62
2021/10/04 06:49:02;;;;;;;20.73;10.60;;;;;;;8.44;62.69;101052.66;5067470;28;20054;-62
2021/10/04 06:51:28;;;;;;;22.58;10.70;;;;;;;8.46;61.96;101058.59;5070960;28;20529;-61
2021/10/04 06:53:53;;;;;;;26.05;11.45;;;;;;;8.42;61.99;101052.84;5068861;28;20107;-62
2021/10/04 06:56:19;;;;;;;20.55;10.98;;;;;;;8.49;61.32;101060.84;5068583;28;20521;-62
2021/10/04 06:58:45;;;;;;;21.08;11.50;;;;;;;8.56;60.61;101056.47;5069697;28;20041;-63
2021/10/04 07:01:11;;;;;;;24.85;11.32;;;;;;;8.59;60.42;101064.06;5066276;28;20493;-61
2021/10/04 07:03:36;;;;;;;27.10;11.07;;;;;;;8.60;61.37;101069.16;5068600;28;20067;-62
2021/10/04 07:06:03;;;;;;;25.10;12.15;;;;;;;8.64;60.28;101065.13;5068095;28;20424;-62
2021/10/04 07:08:29;;;;;;;24.08;11.15;;;;;;;8.69;60.37;101061.13;5067174;28;20202;-61
2021/10/04 07:10:55;;;;;;;27.83;11.18;;;;;;;8.73;59.77;101063.19;5068859;28;20131;-61
2021/10/04 07:13:21;;;;;;;26.27;11.40;;;;;;;8.77;59.34;101067.13;5067546;28;20831;-66
2021/10/04 07:15:47;;;;;;;19.15;10.90;;;;;;;8.80;59.38;101065.94;5068475;28;20119;-62
2021/10/04 07:18:12;;;;;;;26.80;10.70;;;;;;;8.82;59.17;101058.63;5069377;28;20249;-62
2021/10/04 07:20:38;;;;;;;22.77;9.95;;;;;;;8.85;58.62;101067.03;5070472;28;20039;-62
2021/10/04 07:23:04;;;;;;;17.90;9.50;;;;;;;8.86;59.04;101054.63;5069624;28;20143;-60
2021/10/04 07:25:33;;;;;;;23.63;10.48;;;;;;;8.89;59.38;101069.31;5067099;28;20137;-61
2021/10/04 07:28:00;;;;;;;23.60;11.18;;;;;;;8.92;58.37;101064.47;5067793;28;20040;-64
2021/10/04 07:30:26;;;;;;;20.50;9.88;;;;;;;8.96;57.49;101059.63;5067324;28;20455;-62
2021/10/04 07:32:52;;;;;;;19.10;9.70;;;;;;;8.98;57.70;101057.63;5070338;28;20506;-63
2021/10/04 07:35:20;;;;;;;19.85;10.18;;;;;;;9.05;57.25;101061.97;5069508;28;20041;-66
2021/10/04 07:37:46;;;;;;;20.40;9.98;;;;;;;9.11;57.99;101065.69;5069375;28;20054;-62
2021/10/04 07:40:12;;;;;;;23.30;12.02;;;;;;;9.14;57.25;101061.84;5068750;28;20127;-62
2021/10/04 07:42:38;;;;;;;18.40;10.00;;;;;;;9.14;56.76;101057.38;5066151;28;20043;-62
2021/10/04 07:45:05;;;;;;;19.40;10.52;;;;;;;9.20;56.90;101061.91;5067115;28;20064;-61
2021/10/04 07:47:31;;;;;;;22.33;11.27;;;;;;;9.26;56.25;101058.53;5068724;28;20044;-62
2021/10/04 07:49:57;;;;;;;23.08;10.55;;;;;;;9.26;56.99;101063.00;5048799;28;20045;-63
2021/10/04 07:52:23;;;;;;;27.98;11.85;;;;;;;9.30;56.65;101059.81;5066222;28;20096;-63
2021/10/04 07:54:49;;;;;;;18.85;9.80;;;;;;;9.31;56.96;101060.63;5068863;28;20048;-64
2021/10/04 07:57:15;;;;;;;20.02;9.98;;;;;;;9.32;56.58;101064.91;5067607;28;20401;-61
2021/10/04 07:59:41;;;;;;;21.45;11.27;;;;;;;9.39;56.56;101059.69;5063525;28;20048;-62
2021/10/04 08:02:10;;;;;;;22.45;11.05;;;;;;;9.45;55.72;101053.63;5081814;28;20041;-62
2021/10/04 08:04:37;;;;;;;21.38;11.30;;;;;;;9.49;55.50;101060.19;5069269;28;20474;-61
2021/10/04 08:07:03;;;;;;;26.58;12.10;;;;;;;9.52;56.13;101059.81;5060827;28;20056;-64
2021/10/04 08:09:29;;;;;;;30.17;11.85;;;;;;;9.60;55.72;101070.28;5052007;28;20060;-60
2021/10/04 08:11:57;;;;;;;26.90;11.02;;;;;;;9.57;55.85;101060.06;5047426;28;20623;-62
2021/10/04 08:14:23;;;;;;;22.05;11.10;;;;;;;9.64;55.25;101073.34;5047126;28;20044;-62
2021/10/04 08:16:49;;;;;;;20.90;11.68;;;;;;;9.70;55.90;101069.94;5049799;28;20045;-61
2021/10/04 08:19:14;;;;;;;24.38;11.40;;;;;;;9.74;54.94;101071.22;5047066;28;20130;-64
2021/10/04 08:21:40;;;;;;;21.70;10.45;;;;;;;9.83;54.85;101066.59;5062058;28;20048;-63
2021/10/04 08:24:06;;;;;;;28.02;11.15;;;;;;;9.85;53.95;101070.69;5067270;28;20040;-62
2021/10/04 08:26:32;;;;;;;26.08;10.63;;;;;;;9.87;53.71;101067.84;5061967;28;20098;-62
2021/10/04 08:28:58;;;;;;;21.02;10.70;;;;;;;9.92;54.35;101073.41;5054270;28;20171;-62
2021/10/04 08:31:29;;;;;;;22.02;10.73;;;;;;;9.93;53.68;101067.91;5053464;28;20075;-62
2021/10/04 08:33:59;;;;;;;18.80;10.38;;;;;;;9.97;54.22;101068.31;5047755;28;20041;-63
2021/10/04 08:36:25;;;;;;;26.58;11.20;;;;;;;9.97;54.10;101063.88;5051893;28;20041;-60
2021/10/04 08:38:51;;;;;;;22.23;11.07;;;;;;;10.01;52.99;101064.31;5062401;28;20604;-62
2021/10/04 08:41:21;;;;;;;27.13;10.75;;;;;;;10.07;53.87;101068.00;5064823;28;20044;-62
2021/10/04 08:43:53;;;;;;;22.00;10.63;;;;;;;10.06;53.07;101064.56;5045334;28;20322;-62
2021/10/04 08:46:19;;;;;;;20.98;10.68;;;;;;;10.08;53.14;101069.63;5060034;28;20052;-61
2021/10/04 08:48:46;;;;;;;21.83;9.98;;;;;;;10.05;53.38;101072.69;5065603;28;20072;-62
2021/10/04 08:51:12;;;;;;;26.17;11.85;;;;;;;10.10;53.01;101076.38;5058949;28;20049;-61
2021/10/04 08:53:39;;;;;;;23.05;10.98;;;;;;;10.10;53.04;101065.78;5056120;28;20089;-61
2021/10/04 08:56:05;;;;;;;23.77;10.82;;;;;;;10.12;52.94;101069.06;5057686;28;20044;-61
2021/10/04 08:58:32;;;;;;;21.35;11.23;;;;;;;10.14;53.08;101064.38;5049664;28;20484;-63
2021/10/04 09:00:59;;;;;;;20.83;11.38;;;;;;;10.20;52.56;101070.75;5034199;28;20041;-62
2021/10/04 09:03:27;;;;;;;22.00;11.40;;;;;;;10.28;52.76;101075.13;5028551;28;20464;-61
2021/10/04 09:05:57;;;;;;;20.48;11.10;;;;;;;10.30;52.74;101070.44;5044577;28;20037;-61
2021/10/04 09:08:23;;;;;;;20.73;10.43;;;;;;;10.29;52.55;101068.78;5051144;28;20060;-62
2021/10/04 09:10:55;;;;;;;17.58;10.35;;;;;;;10.31;52.56;101072.06;5051559;28;20113;-62
2021/10/04 09:13:22;;;;;;;18.75;10.35;;;;;;;10.36;52.53;101072.31;5057651;28;20116;-62
2021/10/04 09:15:51;;;;;;;21.73;10.18;;;;;;;10.46;51.64;101070.94;5051116;28;20036;-65
2021/10/04 09:18:23;;;;;;;22.00;11.35;;;;;;;10.53;51.85;101073.66;5049591;28;20040;-63
2021/10/04 09:21:02;;;;;;;22.15;10.52;;;;;;;10.57;51.25;101071.41;5068340;28;20090;-61
2021/10/04 09:23:28;;;;;;;22.17;10.80;;;;;;;10.59;51.62;101070.22;5072142;28;20044;-66
2021/10/04 09:25:54;;;;;;;19.50;10.48;;;;;;;10.64;51.29;101067.78;5063202;28;20060;-65
2021/10/04 09:28:31;;;;;;;23.00;10.27;;;;;;;10.66;51.06;101068.41;5048566;28;20090;-64
2021/10/04 09:31:16;;;;;;;24.42;11.23;;;;;;;10.74;50.63;101074.56;5052542;28;20080;-64
2021/10/04 09:34:12;;;;;;;24.98;11.95;;;;;;;10.76;50.74;101073.34;5048209;28;20037;-60
2021/10/04 09:36:52;;;;;;;24.67;11.55;;;;;;;10.83;50.95;101073.38;5052840;28;20113;-64
2021/10/04 09:39:22;;;;;;;19.50;10.75;;;;;;;10.88;50.51;101070.94;5067132;28;20044;-63
2021/10/04 09:41:54;;;;;;;20.60;10.52;;;;;;;10.89;50.58;101077.91;5059424;28;20041;-64
2021/10/04 09:44:20;;;;;;;22.58;11.43;;;;;;;11.00;50.19;101080.00;5067544;28;20036;-64
2021/10/04 09:46:46;;;;;;;28.98;12.65;;;;;;;11.19;50.04;101081.06;5042898;28;20048;-62
2021/10/04 09:49:11;;;;;;;25.70;13.48;;;;;;;11.43;49.94;101074.38;5051013;28;20068;-63
2021/10/04 09:51:51;;;;;;;26.88;12.93;;;;;;;11.49;50.26;101070.91;5045937;28;20041;-59
2021/10/04 09:54:17;;;;;;;25.83;12.77;;;;;;;11.72;50.01;101072.38;5050459;28;20501;-64
2021/10/04 09:56:44;;;;;;;23.73;13.20;;;;;;;11.96;48.98;101073.63;5060805;28;20068;-62
2021/10/04 09:59:10;;;;;;;28.48;12.25;;;;;;;12.18;48.28;101075.06;5063287;28;20048;-62
2021/10/04 10:01:36;;;;;;;24.35;12.32;;;;;;;12.22;47.11;101062.16;5066628;28;20189;-64
2021/10/04 10:04:03;;;;;;;22.63;13.07;;;;;;;12.20;46.98;101075.63;5067344;28;20187;-63
2021/10/04 10:06:32;;;;;;;25.48;13.73;;;;;;;12.09;48.11;101067.47;5045441;28;20476;-63
2021/10/04 10:08:58;;;;;;;26.17;14.02;;;;;;;11.95;48.60;101074.66;5045022;28;20067;-65
2021/10/04 10:11:24;;;;;;;28.33;13.32;;;;;;;11.82;48.88;101075.41;5048501;28;20041;-64
2021/10/04 10:13:50;;;;;;;29.70;12.82;;;;;;;11.82;48.62;101078.91;5046652;28;20037;-65
2021/10/04 10:16:29;;;;;;;25.30;12.98;;;;;;;11.90;48.07;101085.06;5053033;28;20201;-61
2021/10/04 10:19:00;;;;;;;22.40;12.60;;;;;;;11.93;48.23;101077.50;5067145;28;20107;-65
2021/10/04 10:21:29;;;;;;;25.40;12.63;;;;;;;12.00;48.07;101078.34;5064468;28;20079;-62
2021/10/04 10:24:08;;;;;;;26.13;12.68;;;;;;;12.07;47.29;101080.16;5044933;28;20045;-61
2021/10/04 10:26:39;;;;;;;26.70;12.23;;;;;;;12.08;47.41;101082.59;5055413;28;20093;-62
2021/10/04 10:29:19;;;;;;;22.15;11.07;;;;;;;11.95;47.18;101070.16;5067306;28;20093;-63
2021/10/04 10:31:51;;;;;;;20.58;11.73;;;;;;;11.81;47.71;101071.94;5058400;28;20045;-61
2021/10/04 10:34:32;;;;;;;23.25;11.25;;;;;;;11.74;48.16;101067.69;5046994;28;20584;-62
2021/10/04 10:37:10;;;;;;;24.67;11.80;;;;;;;11.78;48.19;101067.06;5058344;28;20044;-63
2021/10/04 10:39:36;;;;;;;23.40;10.23;;;;;;;11.82;47.68;101070.94;5066339;28;20040;-61
2021/10/04 10:42:33;;;;;;;22.13;11.55;;;;;;;11.86;47.11;101074.03;5027197;28;20040;-61
2021/10/04 10:44:59;;;;;;;23.58;12.20;;;;;;;11.75;47.33;101080.75;5027694;28;20354;-62
2021/10/04 10:47:34;;;;;;;21.90;11.65;;;;;;;11.71;47.19;101065.44;5065025;28;20090;-64
2021/10/04 10:50:28;;;;;;;22.35;11.55;;;;;;;11.50;47.94;101059.28;5052475;28;20533;-61
2021/10/04 10:52:57;;;;;;;24.02;12.32;;;;;;;11.49;48.32;101070.91;5066018;28;20040;-61
2021/10/04 10:55:23;;;;;;;25.23;12.45;;;;;;;11.32;48.66;101075.78;5067121;28;20087;-61
2021/10/04 10:57:48;;;;;;;22.85;12.27;;;;;;;11.28;48.68;101066.56;5058451;28;20076;-60
2021/10/04 11:00:15;;;;;;;27.10;12.50;;;;;;;11.26;48.94;101059.81;5046983;28;20083;-63
2021/10/04 11:02:47;;;;;;;25.63;12.93;;;;;;;11.25;49.34;101068.81;5063946;28;20489;-61
2021/10/04 11:05:34;;;;;;;25.83;12.40;;;;;;;11.21;49.56;101070.25;5065577;28;20513;-63
2021/10/04 11:08:01;;;;;;;24.60;12.15;;;;;;;11.18;49.53;101065.31;5046907;28;20077;-61
2021/10/04 11:10:27;;;;;;;25.10;13.85;;;;;;;11.21;49.39;101070.25;5053300;28;20036;-67
2021/10/04 11:13:09;;;;;;;22.20;11.93;;;;;;;11.22;49.58;101069.22;5048327;28;20575;-62
2021/10/04 11:15:40;;;;;;;25.95;12.40;;;;;;;11.21;49.37;101073.72;5048222;28;20148;-63